sensor_id;sensor_type;location;lat;lon;timestamp;temperature;humidity
24632;DHT22;59977;48.782;9.190;2024-02-26T00:01:41;9.70;97.80
24632;DHT22;59977;48.782;9.190;2024-02-26T00:04:09;10.00;97.90
24632;DHT22;59977;48.782;9.190;2024-02-26T00:06:34;10.10;98.10
24632;DHT22;59977;48.782;9.190;2024-02-26T00:09:00;9.70;98.00
24632;DHT22;59977;48.782;9.190;2024-02-26T00:11:27;9.80;97.90
24632;DHT22;59977;48.782;9.190;2024-02-26T00:13:53;9.80;97.80
24632;DHT22;59977;48.782;9.190;2024-02-26T00:16:19;9.70;97.60
24632;DHT22;59977;48.782;9.190;2024-02-26T00:18:44;9.70;97.60
24632;DHT22;59977;48.782;9.190;2024-02-26T00:21:10;9.70;97.80
24632;DHT22;59977;48.782;9.190;2024-02-26T00:23:35;9.70;97.90
24632;DHT22;59977;48.782;9.190;2024-02-26T00:26:01;9.60;98.00
24632;DHT22;59977;48.782;9.190;2024-02-26T00:28:27;9.60;98.20
24632;DHT22;59977;48.782;9.190;2024-02-26T00:30:54;9.60;98.40
24632;DHT22;59977;48.782;9.190;2024-02-26T00:33:21;9.50;98.40
24632;DHT22;59977;48.782;9.190;2024-02-26T00:35:47;9.50;98.40
24632;DHT22;59977;48.782;9.190;2024-02-26T00:38:13;9.60;98.50
24632;DHT22;59977;48.782;9.190;2024-02-26T00:40:39;9.60;98.20
24632;DHT22;59977;48.782;9.190;2024-02-26T00:43:06;9.90;98.50
24632;DHT22;59977;48.782;9.190;2024-02-26T00:45:32;9.60;98.50
24632;DHT22;59977;48.782;9.190;2024-02-26T00:47:58;9.90;98.70
24632;DHT22;59977;48.782;9.190;2024-02-26T00:50:23;9.60;98.60
24632;DHT22;59977;48.782;9.190;2024-02-26T00:52:49;10.00;98.80
24632;DHT22;59977;48.782;9.190;2024-02-26T00:55:15;9.70;98.80
24632;DHT22;59977;48.782;9.190;2024-02-26T00:57:40;9.70;98.80
24632;DHT22;59977;48.782;9.190;2024-02-26T01:00:06;9.70;98.80
24632;DHT22;59977;48.782;9.190;2024-02-26T01:02:34;9.70;98.90
24632;DHT22;59977;48.782;9.190;2024-02-26T01:05:00;10.30;99.10
24632;DHT22;59977;48.782;9.190;2024-02-26T01:07:25;9.80;99.00
24632;DHT22;59977;48.782;9.190;2024-02-26T01:09:51;9.60;99.10
24632;DHT22;59977;48.782;9.190;2024-02-26T01:12:16;9.60;99.20
24632;DHT22;59977;48.782;9.190;2024-02-26T01:14:42;9.60;99.20
24632;DHT22;59977;48.782;9.190;2024-02-26T01:17:07;10.10;99.40
24632;DHT22;59977;48.782;9.190;2024-02-26T01:19:33;9.50;99.30
24632;DHT22;59977;48.782;9.190;2024-02-26T01:21:59;9.60;99.40
24632;DHT22;59977;48.782;9.190;2024-02-26T01:24:24;9.50;99.30
24632;DHT22;59977;48.782;9.190;2024-02-26T01:26:50;9.70;99.50
24632;DHT22;59977;48.782;9.190;2024-02-26T01:29:15;9.80;99.60
24632;DHT22;59977;48.782;9.190;2024-02-26T01:31:41;9.50;99.50
24632;DHT22;59977;48.782;9.190;2024-02-26T01:34:06;10.00;99.70
24632;DHT22;59977;48.782;9.190;2024-02-26T01:36:32;9.50;99.40
24632;DHT22;59977;48.782;9.190;2024-02-26T01:38:57;9.60;99.40
24632;DHT22;59977;48.782;9.190;2024-02-26T01:41:23;9.60;99.20
24632;DHT22;59977;48.782;9.190;2024-02-26T01:43:49;10.20;99.20
24632;DHT22;59977;48.782;9.190;2024-02-26T01:46:14;9.80;99.00
24632;DHT22;59977;48.782;9.190;2024-02-26T01:48:42;9.60;99.00
24632;DHT22;59977;48.782;9.190;2024-02-26T01:51:10;9.50;99.00
24632;DHT22;59977;48.782;9.190;2024-02-26T01:53:38;9.50;99.20
24632;DHT22;59977;48.782;9.190;2024-02-26T01:56:04;10.40;99.60
24632;DHT22;59977;48.782;9.190;2024-02-26T01:58:30;9.50;99.40
24632;DHT22;59977;48.782;9.190;2024-02-26T02:00:57;9.60;99.50
24632;DHT22;59977;48.782;9.190;2024-02-26T02:03:23;9.50;99.80
24632;DHT22;59977;48.782;9.190;2024-02-26T02:05:49;10.20;99.90
24632;DHT22;59977;48.782;9.190;2024-02-26T02:08:14;9.50;99.90
24632;DHT22;59977;48.782;9.190;2024-02-26T02:10:41;9.70;99.90
24632;DHT22;59977;48.782;9.190;2024-02-26T02:13:07;9.40;99.90
24632;DHT22;59977;48.782;9.190;2024-02-26T02:15:33;9.80;99.90
24632;DHT22;59977;48.782;9.190;2024-02-26T02:17:58;9.40;99.90
24632;DHT22;59977;48.782;9.190;2024-02-26T02:20:34;9.50;99.90
24632;DHT22;59977;48.782;9.190;2024-02-26T02:23:00;9.50;99.90
24632;DHT22;59977;48.782;9.190;2024-02-26T02:25:26;9.50;99.90
24632;DHT22;59977;48.782;9.190;2024-02-26T02:27:53;10.00;99.90
24632;DHT22;59977;48.782;9.190;2024-02-26T02:30:21;9.40;99.90
24632;DHT22;59977;48.782;9.190;2024-02-26T02:32:48;9.80;99.90
24632;DHT22;59977;48.782;9.190;2024-02-26T02:35:14;10.10;99.90
24632;DHT22;59977;48.782;9.190;2024-02-26T02:37:40;9.40;99.90
24632;DHT22;59977;48.782;9.190;2024-02-26T02:40:06;9.90;99.90
24632;DHT22;59977;48.782;9.190;2024-02-26T02:42:32;9.40;99.90
24632;DHT22;59977;48.782;9.190;2024-02-26T02:44:57;9.40;99.90
24632;DHT22;59977;48.782;9.190;2024-02-26T02:47:23;9.40;99.90
24632;DHT22;59977;48.782;9.190;2024-02-26T02:49:49;9.90;99.90
24632;DHT22;59977;48.782;9.190;2024-02-26T02:52:14;9.70;99.90
24632;DHT22;59977;48.782;9.190;2024-02-26T02:54:40;9.50;99.90
24632;DHT22;59977;48.782;9.190;2024-02-26T02:57:10;9.60;99.90
24632;DHT22;59977;48.782;9.190;2024-02-26T02:59:37;9.60;99.90
24632;DHT22;59977;48.782;9.190;2024-02-26T03:02:02;10.20;99.90
24632;DHT22;59977;48.782;9.190;2024-02-26T03:04:28;9.60;99.90
24632;DHT22;59977;48.782;9.190;2024-02-26T03:06:54;9.70;99.90
24632;DHT22;59977;48.782;9.190;2024-02-26T03:09:20;9.60;99.90
24632;DHT22;59977;48.782;9.190;2024-02-26T03:11:46;9.60;99.90
24632;DHT22;59977;48.782;9.190;2024-02-26T03:14:11;9.50;99.90
24632;DHT22;59977;48.782;9.190;2024-02-26T03:16:38;9.60;99.90
24632;DHT22;59977;48.782;9.190;2024-02-26T03:19:03;9.50;99.90
24632;DHT22;59977;48.782;9.190;2024-02-26T03:21:29;10.20;99.90
24632;DHT22;59977;48.782;9.190;2024-02-26T03:23:55;9.50;99.90
24632;DHT22;59977;48.782;9.190;2024-02-26T03:26:20;9.80;99.90
24632;DHT22;59977;48.782;9.190;2024-02-26T03:28:47;9.60;99.90
24632;DHT22;59977;48.782;9.190;2024-02-26T03:31:12;9.50;99.90
24632;DHT22;59977;48.782;9.190;2024-02-26T03:33:38;9.50;99.90
24632;DHT22;59977;48.782;9.190;2024-02-26T03:36:04;9.60;99.90
24632;DHT22;59977;48.782;9.190;2024-02-26T03:38:30;9.60;99.90
24632;DHT22;59977;48.782;9.190;2024-02-26T03:40:56;9.60;99.90
24632;DHT22;59977;48.782;9.190;2024-02-26T03:43:21;9.60;99.90
24632;DHT22;59977;48.782;9.190;2024-02-26T03:45:47;9.60;99.90
24632;DHT22;59977;48.782;9.190;2024-02-26T03:48:13;9.70;99.90
24632;DHT22;59977;48.782;9.190;2024-02-26T03:50:39;9.50;99.90
24632;DHT22;59977;48.782;9.190;2024-02-26T03:53:04;9.90;99.90
24632;DHT22;59977;48.782;9.190;2024-02-26T03:55:30;9.50;99.90
24632;DHT22;59977;48.782;9.190;2024-02-26T03:57:56;9.50;99.90
24632;DHT22;59977;48.782;9.190;2024-02-26T04:00:21;9.50;99.90
24632;DHT22;59977;48.782;9.190;2024-02-26T04:02:47;9.40;99.90
24632;DHT22;59977;48.782;9.190;2024-02-26T04:05:13;9.40;99.90
24632;DHT22;59977;48.782;9.190;2024-02-26T04:07:39;9.50;99.90
24632;DHT22;59977;48.782;9.190;2024-02-26T04:10:09;9.90;99.90
24632;DHT22;59977;48.782;9.190;2024-02-26T04:12:35;9.40;99.90
24632;DHT22;59977;48.782;9.190;2024-02-26T04:15:00;9.30;99.90
24632;DHT22;59977;48.782;9.190;2024-02-26T04:17:26;9.20;99.90
24632;DHT22;59977;48.782;9.190;2024-02-26T04:19:52;9.30;99.90
24632;DHT22;59977;48.782;9.190;2024-02-26T04:22:17;9.90;99.90
24632;DHT22;59977;48.782;9.190;2024-02-26T04:24:43;9.50;99.90
24632;DHT22;59977;48.782;9.190;2024-02-26T04:27:08;9.60;99.90
24632;DHT22;59977;48.782;9.190;2024-02-26T04:29:34;9.20;99.90
24632;DHT22;59977;48.782;9.190;2024-02-26T04:32:00;9.40;99.90
24632;DHT22;59977;48.782;9.190;2024-02-26T04:34:25;9.10;99.90
24632;DHT22;59977;48.782;9.190;2024-02-26T04:36:51;9.30;99.90
24632;DHT22;59977;48.782;9.190;2024-02-26T04:39:16;9.50;99.90
24632;DHT22;59977;48.782;9.190;2024-02-26T04:41:42;9.30;99.90
24632;DHT22;59977;48.782;9.190;2024-02-26T04:44:07;9.20;99.90
24632;DHT22;59977;48.782;9.190;2024-02-26T04:46:33;9.70;99.90
24632;DHT22;59977;48.782;9.190;2024-02-26T04:48:59;9.90;99.90
24632;DHT22;59977;48.782;9.190;2024-02-26T04:51:24;9.40;99.90
24632;DHT22;59977;48.782;9.190;2024-02-26T04:53:50;9.90;99.90
24632;DHT22;59977;48.782;9.190;2024-02-26T04:56:16;9.20;99.90
24632;DHT22;59977;48.782;9.190;2024-02-26T04:58:41;9.20;99.90
24632;DHT22;59977;48.782;9.190;2024-02-26T05:01:07;9.20;99.90
24632;DHT22;59977;48.782;9.190;2024-02-26T05:03:35;9.30;99.90
24632;DHT22;59977;48.782;9.190;2024-02-26T05:06:01;9.40;99.90
24632;DHT22;59977;48.782;9.190;2024-02-26T05:08:26;9.30;99.90
24632;DHT22;59977;48.782;9.190;2024-02-26T05:10:52;9.30;99.90
24632;DHT22;59977;48.782;9.190;2024-02-26T05:13:17;9.30;99.90
24632;DHT22;59977;48.782;9.190;2024-02-26T05:15:44;9.30;99.90
24632;DHT22;59977;48.782;9.190;2024-02-26T05:18:12;9.70;99.90
24632;DHT22;59977;48.782;9.190;2024-02-26T05:20:37;10.30;99.90
24632;DHT22;59977;48.782;9.190;2024-02-26T05:23:03;9.50;99.90
24632;DHT22;59977;48.782;9.190;2024-02-26T05:25:29;9.40;99.90
24632;DHT22;59977;48.782;9.190;2024-02-26T05:27:55;9.50;99.90
24632;DHT22;59977;48.782;9.190;2024-02-26T05:30:21;9.80;99.90
24632;DHT22;59977;48.782;9.190;2024-02-26T05:32:46;9.40;99.90
24632;DHT22;59977;48.782;9.190;2024-02-26T05:35:12;9.80;99.90
24632;DHT22;59977;48.782;9.190;2024-02-26T05:37:38;9.50;99.90
24632;DHT22;59977;48.782;9.190;2024-02-26T05:40:04;9.50;99.90
24632;DHT22;59977;48.782;9.190;2024-02-26T05:42:31;9.50;99.90
24632;DHT22;59977;48.782;9.190;2024-02-26T05:44:57;9.50;99.90
24632;DHT22;59977;48.782;9.190;2024-02-26T05:47:23;9.40;99.90
24632;DHT22;59977;48.782;9.190;2024-02-26T05:49:48;10.40;99.90
24632;DHT22;59977;48.782;9.190;2024-02-26T05:52:14;9.40;99.90
24632;DHT22;59977;48.782;9.190;2024-02-26T05:54:40;10.00;99.90
24632;DHT22;59977;48.782;9.190;2024-02-26T05:57:05;9.30;99.90
24632;DHT22;59977;48.782;9.190;2024-02-26T05:59:31;9.30;99.90
24632;DHT22;59977;48.782;9.190;2024-02-26T06:01:56;9.20;99.90
24632;DHT22;59977;48.782;9.190;2024-02-26T06:04:22;9.30;99.90
24632;DHT22;59977;48.782;9.190;2024-02-26T06:06:47;9.20;99.90
24632;DHT22;59977;48.782;9.190;2024-02-26T06:09:13;9.20;99.90
24632;DHT22;59977;48.782;9.190;2024-02-26T06:11:39;9.20;99.90
24632;DHT22;59977;48.782;9.190;2024-02-26T06:14:04;9.20;99.90
24632;DHT22;59977;48.782;9.190;2024-02-26T06:16:30;9.10;99.90
24632;DHT22;59977;48.782;9.190;2024-02-26T06:18:56;9.10;99.90
24632;DHT22;59977;48.782;9.190;2024-02-26T06:21:22;9.40;99.90
24632;DHT22;59977;48.782;9.190;2024-02-26T06:23:47;9.80;99.90
24632;DHT22;59977;48.782;9.190;2024-02-26T06:26:13;9.50;99.90
24632;DHT22;59977;48.782;9.190;2024-02-26T06:28:38;9.70;99.90
24632;DHT22;59977;48.782;9.190;2024-02-26T06:31:06;9.30;99.90
24632;DHT22;59977;48.782;9.190;2024-02-26T06:33:32;10.00;99.90
24632;DHT22;59977;48.782;9.190;2024-02-26T06:35:58;9.30;99.90
24632;DHT22;59977;48.782;9.190;2024-02-26T06:38:24;9.70;99.90
24632;DHT22;59977;48.782;9.190;2024-02-26T06:40:50;9.30;99.90
24632;DHT22;59977;48.782;9.190;2024-02-26T06:43:16;9.40;99.90
24632;DHT22;59977;48.782;9.190;2024-02-26T06:45:41;9.40;99.90
24632;DHT22;59977;48.782;9.190;2024-02-26T06:48:07;9.40;99.90
24632;DHT22;59977;48.782;9.190;2024-02-26T06:50:32;9.30;99.90
24632;DHT22;59977;48.782;9.190;2024-02-26T06:52:58;9.60;99.90
24632;DHT22;59977;48.782;9.190;2024-02-26T06:55:28;9.40;99.90
24632;DHT22;59977;48.782;9.190;2024-02-26T06:57:53;9.40;99.90
24632;DHT22;59977;48.782;9.190;2024-02-26T07:00:19;9.40;99.90
24632;DHT22;59977;48.782;9.190;2024-02-26T07:02:45;9.40;99.90
24632;DHT22;59977;48.782;9.190;2024-02-26T07:05:11;9.40;99.90
24632;DHT22;59977;48.782;9.190;2024-02-26T07:07:38;9.40;99.90
24632;DHT22;59977;48.782;9.190;2024-02-26T07:10:04;9.40;99.90
24632;DHT22;59977;48.782;9.190;2024-02-26T07:12:31;9.40;99.90
24632;DHT22;59977;48.782;9.190;2024-02-26T07:14:56;9.40;99.90
24632;DHT22;59977;48.782;9.190;2024-02-26T07:17:22;9.60;99.90
24632;DHT22;59977;48.782;9.190;2024-02-26T07:19:50;9.50;99.90
24632;DHT22;59977;48.782;9.190;2024-02-26T07:22:16;9.90;99.90
24632;DHT22;59977;48.782;9.190;2024-02-26T07:24:43;9.80;99.90
24632;DHT22;59977;48.782;9.190;2024-02-26T07:27:09;9.50;99.90
24632;DHT22;59977;48.782;9.190;2024-02-26T07:29:34;9.50;99.90
24632;DHT22;59977;48.782;9.190;2024-02-26T07:32:00;9.60;99.90
24632;DHT22;59977;48.782;9.190;2024-02-26T07:34:25;10.60;99.90
24632;DHT22;59977;48.782;9.190;2024-02-26T07:37:00;10.50;99.90
24632;DHT22;59977;48.782;9.190;2024-02-26T07:39:25;9.60;99.90
24632;DHT22;59977;48.782;9.190;2024-02-26T07:41:51;9.80;99.90
24632;DHT22;59977;48.782;9.190;2024-02-26T07:44:18;10.60;99.90
24632;DHT22;59977;48.782;9.190;2024-02-26T07:46:44;9.80;99.90
24632;DHT22;59977;48.782;9.190;2024-02-26T07:49:10;10.00;99.90
24632;DHT22;59977;48.782;9.190;2024-02-26T07:51:36;10.40;99.90
24632;DHT22;59977;48.782;9.190;2024-02-26T07:54:02;10.10;99.90
24632;DHT22;59977;48.782;9.190;2024-02-26T07:56:28;9.90;99.90
24632;DHT22;59977;48.782;9.190;2024-02-26T07:58:54;9.80;99.90
24632;DHT22;59977;48.782;9.190;2024-02-26T08:01:21;9.80;99.90
24632;DHT22;59977;48.782;9.190;2024-02-26T08:03:46;9.80;99.90
24632;DHT22;59977;48.782;9.190;2024-02-26T08:06:14;9.80;99.90
24632;DHT22;59977;48.782;9.190;2024-02-26T08:09:02;9.90;99.90
24632;DHT22;59977;48.782;9.190;2024-02-26T08:11:29;10.00;99.90
24632;DHT22;59977;48.782;9.190;2024-02-26T08:13:55;10.10;99.90
24632;DHT22;59977;48.782;9.190;2024-02-26T08:16:21;10.20;99.90
24632;DHT22;59977;48.782;9.190;2024-02-26T08:18:46;10.30;99.90
24632;DHT22;59977;48.782;9.190;2024-02-26T08:21:12;10.70;99.90
24632;DHT22;59977;48.782;9.190;2024-02-26T08:23:37;10.40;99.90
24632;DHT22;59977;48.782;9.190;2024-02-26T08:26:03;10.50;99.90
24632;DHT22;59977;48.782;9.190;2024-02-26T08:28:32;10.50;99.90
24632;DHT22;59977;48.782;9.190;2024-02-26T08:30:58;10.50;99.90
24632;DHT22;59977;48.782;9.190;2024-02-26T08:33:23;11.80;99.90
24632;DHT22;59977;48.782;9.190;2024-02-26T08:35:53;9.90;99.90
24632;DHT22;59977;48.782;9.190;2024-02-26T08:38:39;10.40;99.90
24632;DHT22;59977;48.782;9.190;2024-02-26T08:41:05;11.30;99.90
24632;DHT22;59977;48.782;9.190;2024-02-26T08:43:34;10.50;99.90
24632;DHT22;59977;48.782;9.190;2024-02-26T08:46:00;10.60;99.90
24632;DHT22;59977;48.782;9.190;2024-02-26T08:48:26;9.00;99.90
24632;DHT22;59977;48.782;9.190;2024-02-26T08:50:52;11.20;99.90
24632;DHT22;59977;48.782;9.190;2024-02-26T08:53:17;11.60;99.90
24632;DHT22;59977;48.782;9.190;2024-02-26T08:55:43;10.80;99.90
24632;DHT22;59977;48.782;9.190;2024-02-26T08:58:09;10.80;99.90
24632;DHT22;59977;48.782;9.190;2024-02-26T09:05:32;10.70;99.90
24632;DHT22;59977;48.782;9.190;2024-02-26T09:08:40;10.70;99.90
24632;DHT22;59977;48.782;9.190;2024-02-26T09:14:18;10.20;99.90
24632;DHT22;59977;48.782;9.190;2024-02-26T09:16:45;10.80;99.90
24632;DHT22;59977;48.782;9.190;2024-02-26T09:19:14;10.80;99.90
24632;DHT22;59977;48.782;9.190;2024-02-26T09:21:46;10.80;99.90
24632;DHT22;59977;48.782;9.190;2024-02-26T09:24:12;11.70;99.90
24632;DHT22;59977;48.782;9.190;2024-02-26T09:26:38;11.00;99.90
24632;DHT22;59977;48.782;9.190;2024-02-26T09:29:04;10.70;99.90
24632;DHT22;59977;48.782;9.190;2024-02-26T09:31:31;10.70;99.90
24632;DHT22;59977;48.782;9.190;2024-02-26T09:33:57;10.90;99.90
24632;DHT22;59977;48.782;9.190;2024-02-26T09:36:22;10.80;99.90
24632;DHT22;59977;48.782;9.190;2024-02-26T09:38:48;10.90;99.90
24632;DHT22;59977;48.782;9.190;2024-02-26T09:41:14;10.90;99.90
24632;DHT22;59977;48.782;9.190;2024-02-26T09:43:44;11.00;99.90
24632;DHT22;59977;48.782;9.190;2024-02-26T09:46:15;11.20;99.90
24632;DHT22;59977;48.782;9.190;2024-02-26T09:48:43;11.00;99.90
24632;DHT22;59977;48.782;9.190;2024-02-26T09:51:12;10.90;99.90
24632;DHT22;59977;48.782;9.190;2024-02-26T09:53:39;11.10;99.90
24632;DHT22;59977;48.782;9.190;2024-02-26T09:56:08;12.00;99.90
24632;DHT22;59977;48.782;9.190;2024-02-26T09:58:41;11.90;99.90
24632;DHT22;59977;48.782;9.190;2024-02-26T10:01:11;12.00;99.90
24632;DHT22;59977;48.782;9.190;2024-02-26T10:03:41;11.80;99.90
24632;DHT22;59977;48.782;9.190;2024-02-26T10:06:11;12.90;99.90
24632;DHT22;59977;48.782;9.190;2024-02-26T10:08:43;12.40;99.90
24632;DHT22;59977;48.782;9.190;2024-02-26T10:11:13;12.30;99.90
24632;DHT22;59977;48.782;9.190;2024-02-26T10:14:01;11.50;99.90
24632;DHT22;59977;48.782;9.190;2024-02-26T10:16:27;12.20;99.90
24632;DHT22;59977;48.782;9.190;2024-02-26T10:18:53;12.90;99.90
24632;DHT22;59977;48.782;9.190;2024-02-26T10:21:22;12.00;99.90
24632;DHT22;59977;48.782;9.190;2024-02-26T10:23:49;12.00;99.90
24632;DHT22;59977;48.782;9.190;2024-02-26T10:26:16;12.10;99.90
24632;DHT22;59977;48.782;9.190;2024-02-26T10:28:43;12.80;99.90
24632;DHT22;59977;48.782;9.190;2024-02-26T10:31:10;12.10;99.90
24632;DHT22;59977;48.782;9.190;2024-02-26T10:33:37;12.40;99.90
24632;DHT22;59977;48.782;9.190;2024-02-26T10:36:06;12.50;99.90
24632;DHT22;59977;48.782;9.190;2024-02-26T10:38:34;12.60;99.90
24632;DHT22;59977;48.782;9.190;2024-02-26T10:41:10;12.70;99.90
24632;DHT22;59977;48.782;9.190;2024-02-26T10:43:38;12.70;99.80
24632;DHT22;59977;48.782;9.190;2024-02-26T10:46:08;12.60;99.80
24632;DHT22;59977;48.782;9.190;2024-02-26T10:48:33;12.50;99.90
24632;DHT22;59977;48.782;9.190;2024-02-26T10:51:00;12.50;99.90
24632;DHT22;59977;48.782;9.190;2024-02-26T10:53:28;13.00;99.90
24632;DHT22;59977;48.782;9.190;2024-02-26T10:56:00;13.30;99.90
24632;DHT22;59977;48.782;9.190;2024-02-26T10:58:27;12.70;99.60
24632;DHT22;59977;48.782;9.190;2024-02-26T11:00:56;12.80;99.20
24632;DHT22;59977;48.782;9.190;2024-02-26T11:03:24;13.00;99.20
24632;DHT22;59977;48.782;9.190;2024-02-26T11:05:50;12.70;99.30
24632;DHT22;59977;48.782;9.190;2024-02-26T11:08:24;12.70;99.40
24632;DHT22;59977;48.782;9.190;2024-02-26T11:10:53;12.80;99.10
24632;DHT22;59977;48.782;9.190;2024-02-26T11:13:21;12.70;99.20
24632;DHT22;59977;48.782;9.190;2024-02-26T11:15:47;13.00;99.20
24632;DHT22;59977;48.782;9.190;2024-02-26T11:18:15;12.80;98.90
24632;DHT22;59977;48.782;9.190;2024-02-26T11:20:50;12.70;98.80
24632;DHT22;59977;48.782;9.190;2024-02-26T11:23:15;12.80;99.00
24632;DHT22;59977;48.782;9.190;2024-02-26T11:25:41;12.50;99.00
24632;DHT22;59977;48.782;9.190;2024-02-26T11:28:13;12.60;99.20
24632;DHT22;59977;48.782;9.190;2024-02-26T11:30:43;11.70;99.20
24632;DHT22;59977;48.782;9.190;2024-02-26T11:33:12;13.20;99.60
24632;DHT22;59977;48.782;9.190;2024-02-26T11:35:39;12.40;99.60
24632;DHT22;59977;48.782;9.190;2024-02-26T11:38:08;12.40;99.60
24632;DHT22;59977;48.782;9.190;2024-02-26T11:40:38;12.50;99.70
24632;DHT22;59977;48.782;9.190;2024-02-26T11:43:05;12.60;99.60
24632;DHT22;59977;48.782;9.190;2024-02-26T11:48:16;12.80;99.20
24632;DHT22;59977;48.782;9.190;2024-02-26T13:21:24;14.60;96.30
24632;DHT22;59977;48.782;9.190;2024-02-26T13:24:26;14.40;96.30
24632;DHT22;59977;48.782;9.190;2024-02-26T13:26:59;14.20;96.00
24632;DHT22;59977;48.782;9.190;2024-02-26T13:39:52;13.90;95.50
24632;DHT22;59977;48.782;9.190;2024-02-26T13:45:40;14.40;94.70
24632;DHT22;59977;48.782;9.190;2024-02-26T13:48:45;14.40;95.00
24632;DHT22;59977;48.782;9.190;2024-02-26T13:51:10;14.40;95.00
24632;DHT22;59977;48.782;9.190;2024-02-26T13:54:21;14.50;95.00
24632;DHT22;59977;48.782;9.190;2024-02-26T14:07:29;14.70;94.30
24632;DHT22;59977;48.782;9.190;2024-02-26T14:10:01;14.90;94.30
24632;DHT22;59977;48.782;9.190;2024-02-26T14:12:55;14.80;93.70
24632;DHT22;59977;48.782;9.190;2024-02-26T14:15:31;15.20;93.50
24632;DHT22;59977;48.782;9.190;2024-02-26T14:18:19;15.40;93.70
24632;DHT22;59977;48.782;9.190;2024-02-26T14:20:55;15.30;94.00
24632;DHT22;59977;48.782;9.190;2024-02-26T14:23:20;16.30;94.80
24632;DHT22;59977;48.782;9.190;2024-02-26T14:25:48;15.30;94.50
24632;DHT22;59977;48.782;9.190;2024-02-26T14:28:14;15.00;94.30
24632;DHT22;59977;48.782;9.190;2024-02-26T14:33:15;15.60;93.40
24632;DHT22;59977;48.782;9.190;2024-02-26T14:35:40;15.70;92.80
24632;DHT22;59977;48.782;9.190;2024-02-26T14:38:06;15.70;92.30
24632;DHT22;59977;48.782;9.190;2024-02-26T14:40:32;16.00;92.00
24632;DHT22;59977;48.782;9.190;2024-02-26T14:42:57;16.10;92.30
24632;DHT22;59977;48.782;9.190;2024-02-26T14:45:25;16.00;91.90
24632;DHT22;59977;48.782;9.190;2024-02-26T14:47:50;15.90;92.00
24632;DHT22;59977;48.782;9.190;2024-02-26T14:50:16;15.90;92.20
24632;DHT22;59977;48.782;9.190;2024-02-26T14:52:42;15.90;92.30
24632;DHT22;59977;48.782;9.190;2024-02-26T14:55:07;16.40;92.20
24632;DHT22;59977;48.782;9.190;2024-02-26T14:57:33;15.80;92.00
24632;DHT22;59977;48.782;9.190;2024-02-26T14:59:59;15.90;91.80
24632;DHT22;59977;48.782;9.190;2024-02-26T15:02:24;15.80;91.90
24632;DHT22;59977;48.782;9.190;2024-02-26T15:04:50;15.80;92.20
24632;DHT22;59977;48.782;9.190;2024-02-26T15:07:18;15.50;92.30
24632;DHT22;59977;48.782;9.190;2024-02-26T15:09:47;15.40;92.20
24632;DHT22;59977;48.782;9.190;2024-02-26T15:12:19;16.40;91.90
24632;DHT22;59977;48.782;9.190;2024-02-26T15:14:54;15.20;91.40
24632;DHT22;59977;48.782;9.190;2024-02-26T15:20:29;15.10;91.60
24632;DHT22;59977;48.782;9.190;2024-02-26T15:23:24;14.50;91.60
24632;DHT22;59977;48.782;9.190;2024-02-26T15:29:20;14.80;91.60
24632;DHT22;59977;48.782;9.190;2024-02-26T15:31:57;14.80;91.10
24632;DHT22;59977;48.782;9.190;2024-02-26T15:34:23;14.60;91.30
24632;DHT22;59977;48.782;9.190;2024-02-26T15:36:51;14.80;91.50
24632;DHT22;59977;48.782;9.190;2024-02-26T15:39:20;14.70;91.30
24632;DHT22;59977;48.782;9.190;2024-02-26T15:41:46;15.10;91.30
24632;DHT22;59977;48.782;9.190;2024-02-26T15:44:12;14.50;91.70
24632;DHT22;59977;48.782;9.190;2024-02-26T15:46:44;14.40;92.00
24632;DHT22;59977;48.782;9.190;2024-02-26T15:49:09;14.30;92.10
24632;DHT22;59977;48.782;9.190;2024-02-26T15:51:36;14.50;92.50
24632;DHT22;59977;48.782;9.190;2024-02-26T15:54:02;14.30;92.60
24632;DHT22;59977;48.782;9.190;2024-02-26T15:56:36;14.20;92.80
24632;DHT22;59977;48.782;9.190;2024-02-26T15:59:18;14.10;93.00
24632;DHT22;59977;48.782;9.190;2024-02-26T16:02:12;14.20;93.40
24632;DHT22;59977;48.782;9.190;2024-02-26T16:04:38;14.00;93.50
24632;DHT22;59977;48.782;9.190;2024-02-26T16:07:05;14.00;93.80
24632;DHT22;59977;48.782;9.190;2024-02-26T16:09:38;14.00;94.20
24632;DHT22;59977;48.782;9.190;2024-02-26T16:12:10;15.20;95.00
24632;DHT22;59977;48.782;9.190;2024-02-26T16:14:47;13.90;94.70
24632;DHT22;59977;48.782;9.190;2024-02-26T16:17:32;13.20;94.90
24632;DHT22;59977;48.782;9.190;2024-02-26T16:20:03;13.70;95.30
24632;DHT22;59977;48.782;9.190;2024-02-26T16:22:35;13.70;95.50
24632;DHT22;59977;48.782;9.190;2024-02-26T16:25:04;14.00;95.80
24632;DHT22;59977;48.782;9.190;2024-02-26T16:27:30;13.60;95.80
24632;DHT22;59977;48.782;9.190;2024-02-26T16:29:56;13.90;96.30
24632;DHT22;59977;48.782;9.190;2024-02-26T16:32:21;13.60;96.50
24632;DHT22;59977;48.782;9.190;2024-02-26T16:34:47;13.50;96.70
24632;DHT22;59977;48.782;9.190;2024-02-26T16:37:14;13.50;96.90
24632;DHT22;59977;48.782;9.190;2024-02-26T16:39:41;13.50;97.30
24632;DHT22;59977;48.782;9.190;2024-02-26T16:42:08;13.40;97.50
24632;DHT22;59977;48.782;9.190;2024-02-26T16:44:35;13.40;97.70
24632;DHT22;59977;48.782;9.190;2024-02-26T16:47:03;13.30;97.80
24632;DHT22;59977;48.782;9.190;2024-02-26T16:49:29;13.30;98.00
24632;DHT22;59977;48.782;9.190;2024-02-26T16:51:54;13.30;98.10
24632;DHT22;59977;48.782;9.190;2024-02-26T16:54:20;13.30;98.10
24632;DHT22;59977;48.782;9.190;2024-02-26T16:56:47;13.50;98.10
24632;DHT22;59977;48.782;9.190;2024-02-26T16:59:14;13.20;97.80
24632;DHT22;59977;48.782;9.190;2024-02-26T17:01:58;13.10;97.70
24632;DHT22;59977;48.782;9.190;2024-02-26T17:04:44;13.10;97.30
24632;DHT22;59977;48.782;9.190;2024-02-26T17:07:27;13.00;97.00
24632;DHT22;59977;48.782;9.190;2024-02-26T17:09:52;13.60;97.40
24632;DHT22;59977;48.782;9.190;2024-02-26T17:12:38;13.10;96.70
24632;DHT22;59977;48.782;9.190;2024-02-26T17:18:23;12.50;96.30
24632;DHT22;59977;48.782;9.190;2024-02-26T17:20:56;12.80;95.80
24632;DHT22;59977;48.782;9.190;2024-02-26T17:23:23;12.70;95.80
24632;DHT22;59977;48.782;9.190;2024-02-26T17:25:48;12.80;95.70
24632;DHT22;59977;48.782;9.190;2024-02-26T17:28:14;12.10;95.50
24632;DHT22;59977;48.782;9.190;2024-02-26T17:30:40;13.00;95.50
24632;DHT22;59977;48.782;9.190;2024-02-26T17:33:05;13.00;95.70
24632;DHT22;59977;48.782;9.190;2024-02-26T17:35:31;12.80;95.50
24632;DHT22;59977;48.782;9.190;2024-02-26T17:37:57;12.70;95.30
24632;DHT22;59977;48.782;9.190;2024-02-26T17:40:22;12.80;95.50
24632;DHT22;59977;48.782;9.190;2024-02-26T17:42:48;12.60;95.50
24632;DHT22;59977;48.782;9.190;2024-02-26T17:45:14;12.90;95.60
24632;DHT22;59977;48.782;9.190;2024-02-26T17:47:40;13.40;95.80
24632;DHT22;59977;48.782;9.190;2024-02-26T17:50:06;12.60;95.70
24632;DHT22;59977;48.782;9.190;2024-02-26T17:52:31;12.50;95.70
24632;DHT22;59977;48.782;9.190;2024-02-26T17:55:02;11.70;95.40
24632;DHT22;59977;48.782;9.190;2024-02-26T17:57:28;12.50;95.90
24632;DHT22;59977;48.782;9.190;2024-02-26T17:59:54;12.80;95.90